createdAt,value
2022-10-17T00:00:44.956Z,1.95
2022-10-17T00:03:12.275Z,1.85
2022-10-17T00:05:45.320Z,2.05
2022-10-17T00:08:14.297Z,1.80
2022-10-17T00:10:42.165Z,2.00
2022-10-17T00:13:09.673Z,3.05
2022-10-17T00:15:36.968Z,2.15
2022-10-17T00:18:04.500Z,2.03
2022-10-17T00:20:33.035Z,2.90
2022-10-17T00:23:00.883Z,1.92
2022-10-17T00:25:28.137Z,1.98
2022-10-17T00:27:55.221Z,2.25
2022-10-17T00:30:22.438Z,1.55
2022-10-17T00:32:49.445Z,2.28
2022-10-17T00:35:16.564Z,1.65
2022-10-17T00:37:43.629Z,2.17
2022-10-17T00:40:11.482Z,2.35
2022-10-17T00:42:39.073Z,1.77
2022-10-17T00:45:23.682Z,2.78
2022-10-17T00:48:04.985Z,2.00
2022-10-17T00:50:33.274Z,2.00
2022-10-17T00:53:03.016Z,2.20
2022-10-17T00:55:35.204Z,2.45
2022-10-17T00:58:04.862Z,1.60
2022-10-17T01:00:32.457Z,2.10
2022-10-17T01:02:59.640Z,2.00
2022-10-17T01:05:26.864Z,1.88
2022-10-17T01:07:54.757Z,1.85
2022-10-17T01:13:08.666Z,1.83
2022-10-17T01:15:41.228Z,2.20
2022-10-17T01:18:20.078Z,1.50
2022-10-17T01:20:56.152Z,1.65
2022-10-17T01:24:01.509Z,1.88
2022-10-17T01:26:37.383Z,1.83
2022-10-17T01:29:52.976Z,2.28
2022-10-17T01:32:29.611Z,2.20
2022-10-17T01:35:02.990Z,1.92
2022-10-17T01:37:38.603Z,2.20
2022-10-17T01:40:28.628Z,1.67
2022-10-17T01:43:07.091Z,2.20
2022-10-17T01:45:41.712Z,2.40
2022-10-17T01:48:15.066Z,1.90
2022-10-17T01:50:47.586Z,2.47
2022-10-17T01:53:20.622Z,2.00
2022-10-17T01:55:50.529Z,1.83
2022-10-17T01:58:33.294Z,1.75
2022-10-17T02:01:04.833Z,1.67
2022-10-17T02:06:00.594Z,2.05
2022-10-17T02:08:30.646Z,1.63
2022-10-17T02:11:04.097Z,1.60
2022-10-17T02:13:50.010Z,1.80
2022-10-17T02:16:42.440Z,2.00
2022-10-17T02:19:29.112Z,1.60
2022-10-17T02:22:18.498Z,2.00
2022-10-17T02:25:05.185Z,1.65
2022-10-17T02:27:56.539Z,1.77
2022-10-17T02:30:47.756Z,1.42
2022-10-17T02:33:24.019Z,1.67
2022-10-17T02:35:55.513Z,1.90
2022-10-17T02:40:54.081Z,1.92
2022-10-17T02:43:22.833Z,1.42
2022-10-17T02:45:51.402Z,1.98
2022-10-17T02:48:39.562Z,2.13
2022-10-17T02:51:33.020Z,2.08
2022-10-17T02:54:00.591Z,1.92
2022-10-17T02:56:31.374Z,1.77
2022-10-17T02:59:00.365Z,2.08
2022-10-17T03:01:29.741Z,2.42
2022-10-17T03:04:12.166Z,1.65
2022-10-17T03:06:40.676Z,2.20
2022-10-17T03:09:08.728Z,2.30
2022-10-17T03:11:35.844Z,1.98
2022-10-17T03:14:02.984Z,2.58
2022-10-17T03:16:30.159Z,2.00
2022-10-17T03:18:57.183Z,2.10
2022-10-17T03:21:24.240Z,2.33
2022-10-17T03:23:51.305Z,1.77
2022-10-17T03:26:18.534Z,2.25
2022-10-17T03:28:46.866Z,1.73
2022-10-17T03:31:17.394Z,1.92
2022-10-17T03:33:44.561Z,1.70
2022-10-17T03:36:17.512Z,1.85
2022-10-17T03:38:45.303Z,1.70
2022-10-17T03:41:12.921Z,2.10
2022-10-17T03:43:40.514Z,2.30
2022-10-17T03:46:07.943Z,2.30
2022-10-17T03:48:35.369Z,1.73
2022-10-17T03:51:05.619Z,2.63
2022-10-17T03:53:33.247Z,2.50
2022-10-17T03:56:14.300Z,2.20
2022-10-17T03:58:42.307Z,1.95
2022-10-17T04:01:12.181Z,1.95
2022-10-17T04:03:40.989Z,3.10
2022-10-17T04:06:11.293Z,2.78
2022-10-17T04:08:38.824Z,2.08
2022-10-17T04:11:07.893Z,2.03
2022-10-17T04:13:35.249Z,2.30
2022-10-17T04:16:06.302Z,1.98
2022-10-17T04:18:34.069Z,1.77
2022-10-17T04:21:05.864Z,1.75
2022-10-17T04:23:33.803Z,1.98
2022-10-17T04:26:03.526Z,1.95
2022-10-17T04:28:32.345Z,1.60
2022-10-17T04:31:01.329Z,2.03
2022-10-17T04:33:28.676Z,2.72
2022-10-17T04:36:01.159Z,1.92
2022-10-17T04:38:29.601Z,2.05
2022-10-17T04:41:03.408Z,2.60
2022-10-17T04:43:36.946Z,2.13
2022-10-17T04:46:09.162Z,2.22
2022-10-17T04:48:36.391Z,2.03
2022-10-17T04:51:09.137Z,2.40
2022-10-17T04:53:37.753Z,2.30
2022-10-17T04:56:10.591Z,2.53
2022-10-17T04:58:38.765Z,2.35
2022-10-17T05:01:08.324Z,2.75
2022-10-17T05:03:36.534Z,2.03
2022-10-17T05:06:12.677Z,2.20
2022-10-17T05:08:40.315Z,2.45
2022-10-17T05:11:20.030Z,1.77
2022-10-17T05:13:58.281Z,2.25
2022-10-17T05:16:26.590Z,2.33
2022-10-17T05:18:56.868Z,1.92
2022-10-17T05:21:26.060Z,1.65
2022-10-17T05:23:53.306Z,3.15
2022-10-17T05:26:21.345Z,2.45
2022-10-17T05:28:48.554Z,2.10
2022-10-17T05:31:15.989Z,2.45
2022-10-17T05:33:43.156Z,1.60
2022-10-17T05:36:10.556Z,2.03
2022-10-17T05:38:37.643Z,2.45
2022-10-17T05:41:05.949Z,2.50
2022-10-17T05:43:34.698Z,1.73
2022-10-17T05:46:06.850Z,2.28
2022-10-17T05:48:34.740Z,2.63
2022-10-17T05:51:04.432Z,2.38
2022-10-17T05:53:33.037Z,1.80
2022-10-17T05:56:01.991Z,2.22
2022-10-17T05:58:49.364Z,2.72
2022-10-17T06:01:17.284Z,2.92
2022-10-17T06:03:44.396Z,1.70
2022-10-17T06:06:13.532Z,2.67
2022-10-17T06:08:40.685Z,2.38
2022-10-17T06:11:10.146Z,2.25
2022-10-17T06:13:38.327Z,3.17
2022-10-17T06:16:06.485Z,1.88
2022-10-17T06:18:34.308Z,2.25
2022-10-17T06:21:07.071Z,1.85
2022-10-17T06:23:34.617Z,2.13
2022-10-17T06:26:03.297Z,1.85
2022-10-17T06:28:30.954Z,2.13
2022-10-17T06:30:58.313Z,1.77
2022-10-17T06:33:25.670Z,2.40
2022-10-17T06:35:56.932Z,1.63
2022-10-17T06:38:24.467Z,1.77
2022-10-17T06:40:52.139Z,2.25
2022-10-17T06:43:19.202Z,2.95
2022-10-17T06:45:48.043Z,2.10
2022-10-17T06:48:15.435Z,2.25
2022-10-17T06:50:42.577Z,1.60
2022-10-17T06:53:09.680Z,1.80
2022-10-17T06:55:36.815Z,2.03
2022-10-17T06:58:04.096Z,2.45
2022-10-17T07:00:31.217Z,2.15
2022-10-17T07:02:58.314Z,2.50
2022-10-17T07:05:25.472Z,2.00
2022-10-17T07:07:52.609Z,2.00
2022-10-17T07:10:20.051Z,2.22
2022-10-17T07:12:47.122Z,1.85
2022-10-17T07:15:14.136Z,2.42
2022-10-17T07:17:41.240Z,2.17
2022-10-17T07:20:08.967Z,2.13
2022-10-17T07:22:36.206Z,2.53
2022-10-17T07:25:03.378Z,1.98
2022-10-17T07:27:30.765Z,2.53
2022-10-17T07:29:59.274Z,3.15
2022-10-17T07:32:26.384Z,3.70
2022-10-17T07:34:53.448Z,2.55
2022-10-17T07:37:20.511Z,2.38
2022-10-17T07:39:47.593Z,2.28
2022-10-17T07:42:14.962Z,2.40
2022-10-17T07:44:42.188Z,2.40
2022-10-17T07:47:09.470Z,2.90
2022-10-17T07:49:42.717Z,2.30
2022-10-17T07:52:14.197Z,2.70
2022-10-17T07:57:09.099Z,2.60
2022-10-17T07:59:38.003Z,3.25
2022-10-17T08:02:06.109Z,2.63
2022-10-17T08:04:34.426Z,3.33
2022-10-17T08:07:18.314Z,2.15
2022-10-17T08:09:48.625Z,2.00
2022-10-17T08:12:16.167Z,2.88
2022-10-17T08:14:43.836Z,2.90
2022-10-17T08:17:10.984Z,1.88
2022-10-17T08:19:41.392Z,1.77
2022-10-17T08:22:09.126Z,2.55
2022-10-17T08:24:36.277Z,2.35
2022-10-17T08:27:04.160Z,2.00
2022-10-17T08:29:33.029Z,2.58
2022-10-17T08:32:01.386Z,2.33
2022-10-17T08:34:29.891Z,2.25
2022-10-17T08:36:57.021Z,2.85
2022-10-17T08:39:24.110Z,2.13
2022-10-17T08:42:26.558Z,2.13
2022-10-17T08:45:36.964Z,2.42
2022-10-17T08:48:12.715Z,2.28
2022-10-17T08:50:52.022Z,2.13
2022-10-17T08:53:25.033Z,2.45
2022-10-17T08:55:54.153Z,2.70
2022-10-17T08:58:29.352Z,3.00
2022-10-17T09:00:56.359Z,2.30
2022-10-17T09:03:32.614Z,1.90
2022-10-17T09:06:30.157Z,2.67
2022-10-17T09:09:31.143Z,2.25
2022-10-17T09:12:16.546Z,2.50
2022-10-17T09:14:51.472Z,2.25
2022-10-17T09:17:24.073Z,2.17
2022-10-17T09:20:11.477Z,1.77
2022-10-17T09:22:47.989Z,2.78
2022-10-17T09:25:19.716Z,1.98
2022-10-17T09:28:09.967Z,2.60
2022-10-17T09:30:46.368Z,2.28
2022-10-17T09:33:28.263Z,1.98
2022-10-17T09:36:05.254Z,2.50
2022-10-17T09:38:45.871Z,3.20
2022-10-17T09:44:24.278Z,2.75
2022-10-17T09:47:10.199Z,2.45
2022-10-17T09:49:43.401Z,2.65
2022-10-17T09:52:25.497Z,2.60
2022-10-17T09:55:23.431Z,2.05
2022-10-17T09:58:02.368Z,2.78
2022-10-17T10:00:32.324Z,1.92
2022-10-17T10:03:17.059Z,1.92
2022-10-17T10:05:59.098Z,2.17
2022-10-17T10:08:30.585Z,2.47
2022-10-17T10:13:27.758Z,2.30
2022-10-17T10:16:12.484Z,2.00
2022-10-17T10:18:39.647Z,1.80
2022-10-17T10:21:20.428Z,2.40
2022-10-17T10:24:10.556Z,2.17
2022-10-17T10:26:47.785Z,2.45
2022-10-17T10:29:38.599Z,2.20
2022-10-17T10:32:23.909Z,3.50
2022-10-17T10:34:56.763Z,3.95
2022-10-17T10:37:31.054Z,3.47
2022-10-17T10:40:02.093Z,3.40
2022-10-17T10:42:33.117Z,2.50
2022-10-17T10:45:47.084Z,2.45
2022-10-17T10:48:23.970Z,2.58
2022-10-17T10:51:10.358Z,2.28
2022-10-17T10:54:03.518Z,1.92
2022-10-17T10:56:53.559Z,2.10
2022-10-17T10:59:39.696Z,1.77
2022-10-17T11:02:29.630Z,2.50
2022-10-17T11:05:18.384Z,1.85
2022-10-17T11:08:00.502Z,2.45
2022-10-17T11:10:59.315Z,2.28
2022-10-17T11:13:32.502Z,2.30
2022-10-17T11:16:25.251Z,2.50
2022-10-17T11:19:03.973Z,2.47
2022-10-17T11:24:30.243Z,2.60
2022-10-17T11:27:08.343Z,1.95
2022-10-17T11:29:39.278Z,2.22
2022-10-17T11:32:15.586Z,1.90
2022-10-17T11:34:47.826Z,2.78
2022-10-17T11:37:26.727Z,2.72
2022-10-17T11:40:00.447Z,2.33
2022-10-17T11:42:53.704Z,2.10
2022-10-17T11:45:24.183Z,1.80
2022-10-17T11:48:01.119Z,1.98
2022-10-17T11:53:34.582Z,2.90
2022-10-17T11:56:02.675Z,1.38
2022-10-17T11:59:07.206Z,1.98
2022-10-17T12:01:52.762Z,1.80
2022-10-17T12:04:49.773Z,2.45
2022-10-17T12:07:46.345Z,1.70
2022-10-17T12:10:22.216Z,1.85
2022-10-17T12:12:49.906Z,1.90
2022-10-17T12:15:26.392Z,1.90
2022-10-17T12:17:58.465Z,2.03
2022-10-17T12:20:37.399Z,2.20
2022-10-17T12:23:13.778Z,2.22
2022-10-17T12:26:01.510Z,2.20
2022-10-17T12:28:42.698Z,2.38
2022-10-17T12:31:29.598Z,2.47
2022-10-17T12:34:04.741Z,2.75
2022-10-17T12:36:31.917Z,2.75
2022-10-17T12:39:01.762Z,2.45
2022-10-17T12:41:40.966Z,2.42
2022-10-17T12:44:34.245Z,2.72
2022-10-17T12:47:10.891Z,2.13
2022-10-17T12:49:41.303Z,2.08
2022-10-17T12:52:26.314Z,2.20
2022-10-17T12:55:12.962Z,2.85
2022-10-17T12:57:57.379Z,1.88
2022-10-17T13:03:45.854Z,2.17
2022-10-17T13:06:22.551Z,1.80
2022-10-17T13:08:57.719Z,2.25
2022-10-17T13:11:30.276Z,2.28
2022-10-17T13:14:00.937Z,1.90
2022-10-17T13:16:36.683Z,2.10
2022-10-17T13:19:20.409Z,1.60
2022-10-17T13:22:06.885Z,2.00
2022-10-17T13:24:36.191Z,2.08
2022-10-17T13:27:05.540Z,2.70
2022-10-17T13:29:33.377Z,2.15
2022-10-17T13:32:04.212Z,2.45
2022-10-17T13:34:33.211Z,1.98
2022-10-17T13:37:03.281Z,2.55
2022-10-17T13:42:27.852Z,2.42
2022-10-17T13:47:28.651Z,2.20
2022-10-17T13:49:57.016Z,1.95
2022-10-17T13:52:28.612Z,1.90
2022-10-17T13:55:06.532Z,2.03
2022-10-17T13:57:34.085Z,2.00
2022-10-17T14:00:18.578Z,2.03
2022-10-17T14:02:45.927Z,1.88
2022-10-17T14:05:20.825Z,2.50
2022-10-17T14:10:41.987Z,1.92
2022-10-17T14:13:21.784Z,2.05
2022-10-17T14:15:49.506Z,1.52
2022-10-17T14:18:28.353Z,1.67
2022-10-17T14:23:44.914Z,1.70
2022-10-17T14:26:20.320Z,1.73
2022-10-17T14:28:51.295Z,1.70
2022-10-17T14:31:25.752Z,1.73
2022-10-17T14:33:54.415Z,2.03
2022-10-17T14:36:31.239Z,1.80
2022-10-17T14:38:59.017Z,1.67
2022-10-17T14:41:44.487Z,1.80
2022-10-17T14:44:21.865Z,1.95
2022-10-17T14:46:54.892Z,1.83
2022-10-17T14:49:34.055Z,1.42
2022-10-17T14:52:18.652Z,1.42
2022-10-17T14:54:48.787Z,2.05
2022-10-17T14:57:19.433Z,2.00
2022-10-17T14:59:55.192Z,1.73
2022-10-17T15:02:24.247Z,2.05
2022-10-17T15:04:51.429Z,2.67
2022-10-17T15:07:19.714Z,2.58
2022-10-17T15:09:48.943Z,1.77
2022-10-17T15:12:19.290Z,1.70
2022-10-17T15:14:48.058Z,1.98
2022-10-17T15:17:21.040Z,9.32
2022-10-17T15:19:49.040Z,5.45
2022-10-17T15:22:16.517Z,2.25
2022-10-17T15:24:46.104Z,2.28
2022-10-17T15:27:19.476Z,2.17
2022-10-17T15:29:47.014Z,9.07
2022-10-17T15:32:14.247Z,3.67
2022-10-17T15:34:41.523Z,2.40
2022-10-17T15:37:25.406Z,2.13
2022-10-17T15:39:55.034Z,3.35
2022-10-17T15:42:31.804Z,2.30
2022-10-17T15:44:59.245Z,2.22
2022-10-17T15:47:31.465Z,1.70
2022-10-17T15:50:00.529Z,2.40
2022-10-17T15:52:28.170Z,2.50
2022-10-17T15:54:57.280Z,3.30
2022-10-17T15:57:29.899Z,1.90
2022-10-17T15:59:59.493Z,2.15
2022-10-17T16:02:27.346Z,2.40
2022-10-17T16:04:54.557Z,2.40
2022-10-17T16:07:21.984Z,2.55
2022-10-17T16:09:49.312Z,2.17
2022-10-17T16:12:25.230Z,2.05
2022-10-17T16:14:52.515Z,2.40
2022-10-17T16:17:19.787Z,3.00
2022-10-17T16:19:47.074Z,2.20
2022-10-17T16:22:25.011Z,3.58
2022-10-17T16:24:59.308Z,2.97
2022-10-17T16:27:29.512Z,2.92
2022-10-17T16:29:57.376Z,2.50
2022-10-17T16:32:25.883Z,5.60
2022-10-17T16:34:56.487Z,7.20
2022-10-17T16:37:25.570Z,3.73
2022-10-17T16:39:54.392Z,2.97
2022-10-17T16:42:23.252Z,6.13
2022-10-17T16:44:52.526Z,3.50
2022-10-17T16:47:20.895Z,3.65
2022-10-17T16:49:49.513Z,3.65
2022-10-17T16:52:17.330Z,3.55
2022-10-17T16:54:44.689Z,4.28
2022-10-17T16:57:11.840Z,5.47
2022-10-17T16:59:39.032Z,5.95
2022-10-17T17:02:06.527Z,6.95
2022-10-17T17:04:33.669Z,4.97
2022-10-17T17:07:00.805Z,5.65
2022-10-17T17:09:28.265Z,5.03
2022-10-17T17:11:55.418Z,6.10
2022-10-17T17:14:22.488Z,5.47
2022-10-17T17:16:49.585Z,6.03
2022-10-17T17:19:20.558Z,5.85
2022-10-17T17:21:51.325Z,7.13
2022-10-17T17:24:21.261Z,6.93
2022-10-17T17:26:56.265Z,7.68
2022-10-17T17:29:24.687Z,8.90
2022-10-17T17:31:52.262Z,8.95
2022-10-17T17:34:19.517Z,9.32
2022-10-17T17:36:46.567Z,10.77
2022-10-17T17:39:15.298Z,11.15
2022-10-17T17:41:43.355Z,10.88
2022-10-17T17:44:15.742Z,11.60
2022-10-17T17:46:44.289Z,11.35
2022-10-17T17:49:11.942Z,11.38
2022-10-17T17:51:41.599Z,10.52
2022-10-17T17:54:11.737Z,11.02
2022-10-17T17:56:39.214Z,11.82
2022-10-17T17:59:06.827Z,11.85
2022-10-17T18:01:39.300Z,11.90
2022-10-17T18:04:08.974Z,12.23
2022-10-17T18:06:37.749Z,13.40
2022-10-17T18:09:06.035Z,12.48
2022-10-17T18:11:36.886Z,13.50
2022-10-17T18:14:10.775Z,13.15
2022-10-17T18:16:38.210Z,14.18
2022-10-17T18:19:07.541Z,13.55
2022-10-17T18:21:35.588Z,13.80
2022-10-17T18:24:05.270Z,12.57
2022-10-17T18:26:33.103Z,15.32
2022-10-17T18:29:00.232Z,13.82
2022-10-17T18:31:36.279Z,13.88
2022-10-17T18:34:04.841Z,13.65
2022-10-17T18:36:34.637Z,12.55
2022-10-17T18:39:02.965Z,13.10
2022-10-17T18:41:30.545Z,13.63
2022-10-17T18:43:58.287Z,12.95
2022-10-17T18:46:31.226Z,13.85
2022-10-17T18:48:59.080Z,13.60
2022-10-17T18:51:30.148Z,13.00
2022-10-17T18:54:03.516Z,14.07
2022-10-17T18:56:35.404Z,13.43
2022-10-17T18:59:02.581Z,13.60
2022-10-17T19:01:30.103Z,11.93
2022-10-17T19:04:01.075Z,13.07
2022-10-17T19:06:32.229Z,12.40
2022-10-17T19:09:04.447Z,11.40
2022-10-17T19:11:36.027Z,12.07
2022-10-17T19:14:05.362Z,11.40
2022-10-17T19:16:37.365Z,11.00
2022-10-17T19:19:12.306Z,11.35
2022-10-17T19:21:40.476Z,10.57
2022-10-17T19:24:14.089Z,10.82
2022-10-17T19:26:42.673Z,10.68
2022-10-17T19:29:13.156Z,8.73
2022-10-17T19:31:44.961Z,9.50
2022-10-17T19:34:13.848Z,9.40
2022-10-17T19:36:41.774Z,9.48
2022-10-17T19:39:18.846Z,9.40
2022-10-17T19:41:49.692Z,10.93
2022-10-17T19:44:20.519Z,10.25
2022-10-17T19:46:52.230Z,10.43
2022-10-17T19:49:19.679Z,7.82
2022-10-17T19:51:47.559Z,8.70
2022-10-17T19:54:18.349Z,7.65
2022-10-17T19:56:45.801Z,8.55
2022-10-17T19:59:16.504Z,8.00
2022-10-17T20:01:44.984Z,6.93
2022-10-17T20:04:13.021Z,6.50
2022-10-17T20:06:41.376Z,6.03
2022-10-17T20:09:12.379Z,6.20
2022-10-17T20:11:42.980Z,6.10
2022-10-17T20:14:10.130Z,6.40
2022-10-17T20:16:37.667Z,6.53
2022-10-17T20:19:08.977Z,6.85
2022-10-17T20:21:37.520Z,6.80
2022-10-17T20:24:07.208Z,6.60
2022-10-17T20:26:39.416Z,6.13
2022-10-17T20:29:11.714Z,6.20
2022-10-17T20:31:48.377Z,6.30
2022-10-17T20:34:17.213Z,4.95
2022-10-17T20:36:44.633Z,5.88
2022-10-17T20:39:17.223Z,5.53
2022-10-17T20:41:45.421Z,5.55
2022-10-17T20:44:13.602Z,5.03
2022-10-17T20:46:48.732Z,6.05
2022-10-17T20:49:24.865Z,5.05
2022-10-17T20:51:52.083Z,5.05
2022-10-17T20:54:19.165Z,5.13
2022-10-17T20:56:46.221Z,4.82
2022-10-17T20:59:16.632Z,5.50
2022-10-17T21:01:45.194Z,5.30
2022-10-17T21:04:45.396Z,5.60
2022-10-17T21:07:00.295Z,5.30
2022-10-17T21:09:27.404Z,4.95
2022-10-17T21:11:56.061Z,4.30
2022-10-17T21:14:24.798Z,4.80
2022-10-17T21:16:52.566Z,4.47
2022-10-17T21:19:22.259Z,5.25
2022-10-17T21:21:49.656Z,4.68
2022-10-17T21:24:19.343Z,4.45
2022-10-17T21:26:48.212Z,4.20
2022-10-17T21:29:16.120Z,5.00
2022-10-17T21:31:45.211Z,4.40
2022-10-17T21:34:18.961Z,3.85
2022-10-17T21:36:46.529Z,4.65
2022-10-17T21:39:15.514Z,4.95
2022-10-17T21:41:44.014Z,3.92
2022-10-17T21:44:16.450Z,3.92
2022-10-17T21:46:47.480Z,4.30
2022-10-17T21:49:19.009Z,3.83
2022-10-17T21:54:16.216Z,3.67
2022-10-17T21:56:43.478Z,3.88
2022-10-17T21:59:11.095Z,4.05
2022-10-17T22:01:41.125Z,4.07
2022-10-17T22:04:12.568Z,3.60
2022-10-17T22:06:44.804Z,3.33
2022-10-17T22:09:24.382Z,3.03
2022-10-17T22:11:54.645Z,3.15
2022-10-17T22:14:23.283Z,2.70
2022-10-17T22:16:51.503Z,3.38
2022-10-17T22:19:22.679Z,3.60
2022-10-17T22:21:53.995Z,3.45
2022-10-17T22:24:22.586Z,3.83
2022-10-17T22:26:50.202Z,3.60
2022-10-17T22:29:18.041Z,3.42
2022-10-17T22:31:49.503Z,3.10
2022-10-17T22:36:44.785Z,3.55
2022-10-17T22:39:12.087Z,3.45
2022-10-17T22:41:39.526Z,4.18
2022-10-17T22:44:07.335Z,4.07
2022-10-17T22:46:34.452Z,3.22
2022-10-17T22:49:01.895Z,3.83
2022-10-17T22:51:29.059Z,4.57
2022-10-17T22:53:56.271Z,4.22
2022-10-17T22:56:23.814Z,3.25
2022-10-17T22:58:51.366Z,3.67
2022-10-17T23:01:25.594Z,3.03
2022-10-17T23:03:53.436Z,3.70
2022-10-17T23:06:22.017Z,2.97
2022-10-17T23:08:49.814Z,2.95
2022-10-17T23:11:17.294Z,3.33
2022-10-17T23:13:44.383Z,2.88
2022-10-17T23:16:11.648Z,2.95
2022-10-17T23:18:39.373Z,3.00
2022-10-17T23:21:07.000Z,2.97
2022-10-17T23:23:34.237Z,3.25
2022-10-17T23:26:10.396Z,3.08
2022-10-17T23:28:40.586Z,3.50
2022-10-17T23:31:19.310Z,5.65
2022-10-17T23:33:47.654Z,3.72
2022-10-17T23:36:17.424Z,3.55
2022-10-17T23:38:45.739Z,4.13
2022-10-17T23:41:13.465Z,4.13
2022-10-17T23:43:41.033Z,3.72
2022-10-17T23:46:08.911Z,3.50
2022-10-17T23:48:36.387Z,2.97
2022-10-17T23:51:04.609Z,3.17
2022-10-17T23:53:31.963Z,3.67
2022-10-17T23:55:59.229Z,3.92
2022-10-17T23:58:26.364Z,4.05
